sensor_id;sensor_type;location;lat;lon;timestamp;P1;durP1;ratioP1;P2;durP2;ratioP2
2211;SDS011;48849;48.758;9.158;2023-10-09T00:01:24;16.67;;;6.50;;
2211;SDS011;48849;48.758;9.158;2023-10-09T00:03:52;23.42;;;6.75;;
2211;SDS011;48849;48.758;9.158;2023-10-09T00:06:21;15.60;;;6.13;;
2211;SDS011;48849;48.758;9.158;2023-10-09T00:08:57;14.25;;;5.72;;
2211;SDS011;48849;48.758;9.158;2023-10-09T00:11:37;11.68;;;5.55;;
2211;SDS011;48849;48.758;9.158;2023-10-09T00:14:09;13.90;;;5.18;;
2211;SDS011;48849;48.758;9.158;2023-10-09T00:16:36;9.63;;;5.25;;
2211;SDS011;48849;48.758;9.158;2023-10-09T00:19:09;13.50;;;5.70;;
2211;SDS011;48849;48.758;9.158;2023-10-09T00:21:48;13.13;;;4.80;;
2211;SDS011;48849;48.758;9.158;2023-10-09T00:24:15;12.63;;;5.63;;
2211;SDS011;48849;48.758;9.158;2023-10-09T00:26:49;12.60;;;5.35;;
2211;SDS011;48849;48.758;9.158;2023-10-09T00:29:16;14.13;;;5.90;;
2211;SDS011;48849;48.758;9.158;2023-10-09T00:34:19;17.05;;;5.82;;
2211;SDS011;48849;48.758;9.158;2023-10-09T00:36:48;12.75;;;5.43;;
2211;SDS011;48849;48.758;9.158;2023-10-09T00:39:16;16.33;;;6.25;;
2211;SDS011;48849;48.758;9.158;2023-10-09T00:41:57;13.68;;;5.20;;
2211;SDS011;48849;48.758;9.158;2023-10-09T00:44:25;16.80;;;5.72;;
2211;SDS011;48849;48.758;9.158;2023-10-09T00:47:02;15.70;;;5.40;;
2211;SDS011;48849;48.758;9.158;2023-10-09T00:49:35;13.15;;;5.53;;
2211;SDS011;48849;48.758;9.158;2023-10-09T00:52:09;17.83;;;6.18;;
2211;SDS011;48849;48.758;9.158;2023-10-09T00:54:43;15.23;;;5.80;;
2211;SDS011;48849;48.758;9.158;2023-10-09T00:57:16;12.80;;;5.45;;
2211;SDS011;48849;48.758;9.158;2023-10-09T00:59:49;14.57;;;5.85;;
2211;SDS011;48849;48.758;9.158;2023-10-09T01:02:25;19.83;;;7.00;;
2211;SDS011;48849;48.758;9.158;2023-10-09T01:05:00;19.45;;;5.97;;
2211;SDS011;48849;48.758;9.158;2023-10-09T01:07:45;12.75;;;5.93;;
2211;SDS011;48849;48.758;9.158;2023-10-09T01:10:13;26.92;;;7.90;;
2211;SDS011;48849;48.758;9.158;2023-10-09T01:12:42;18.20;;;7.38;;
2211;SDS011;48849;48.758;9.158;2023-10-09T01:15:11;15.05;;;5.22;;
2211;SDS011;48849;48.758;9.158;2023-10-09T01:18:01;14.13;;;6.05;;
2211;SDS011;48849;48.758;9.158;2023-10-09T01:20:29;21.83;;;5.63;;
2211;SDS011;48849;48.758;9.158;2023-10-09T01:23:08;14.13;;;5.68;;
2211;SDS011;48849;48.758;9.158;2023-10-09T01:25:36;17.92;;;5.90;;
2211;SDS011;48849;48.758;9.158;2023-10-09T01:28:08;25.58;;;6.75;;
2211;SDS011;48849;48.758;9.158;2023-10-09T01:30:35;17.65;;;6.18;;
2211;SDS011;48849;48.758;9.158;2023-10-09T01:33:06;24.35;;;6.40;;
2211;SDS011;48849;48.758;9.158;2023-10-09T01:35:40;22.10;;;7.00;;
2211;SDS011;48849;48.758;9.158;2023-10-09T01:38:14;15.73;;;6.22;;
2211;SDS011;48849;48.758;9.158;2023-10-09T01:40:41;21.38;;;6.88;;
2211;SDS011;48849;48.758;9.158;2023-10-09T01:43:09;15.65;;;5.75;;
2211;SDS011;48849;48.758;9.158;2023-10-09T01:45:37;14.07;;;5.75;;
2211;SDS011;48849;48.758;9.158;2023-10-09T01:48:08;20.30;;;5.45;;
2211;SDS011;48849;48.758;9.158;2023-10-09T01:50:37;17.48;;;6.13;;
2211;SDS011;48849;48.758;9.158;2023-10-09T01:53:06;21.95;;;7.07;;
2211;SDS011;48849;48.758;9.158;2023-10-09T01:55:35;16.83;;;6.53;;
2211;SDS011;48849;48.758;9.158;2023-10-09T01:58:05;24.67;;;7.03;;
2211;SDS011;48849;48.758;9.158;2023-10-09T02:00:42;12.77;;;5.55;;
2211;SDS011;48849;48.758;9.158;2023-10-09T02:03:18;18.50;;;6.40;;
2211;SDS011;48849;48.758;9.158;2023-10-09T02:05:49;16.75;;;5.85;;
2211;SDS011;48849;48.758;9.158;2023-10-09T02:08:16;26.63;;;6.22;;
2211;SDS011;48849;48.758;9.158;2023-10-09T02:10:48;20.48;;;6.80;;
2211;SDS011;48849;48.758;9.158;2023-10-09T02:13:15;23.30;;;5.80;;
2211;SDS011;48849;48.758;9.158;2023-10-09T02:15:43;14.82;;;5.65;;
2211;SDS011;48849;48.758;9.158;2023-10-09T02:18:23;23.73;;;5.95;;
2211;SDS011;48849;48.758;9.158;2023-10-09T02:21:05;20.02;;;6.75;;
2211;SDS011;48849;48.758;9.158;2023-10-09T02:23:39;17.55;;;5.28;;
2211;SDS011;48849;48.758;9.158;2023-10-09T02:26:07;20.00;;;5.57;;
2211;SDS011;48849;48.758;9.158;2023-10-09T02:28:42;23.02;;;5.60;;
2211;SDS011;48849;48.758;9.158;2023-10-09T02:31:10;22.05;;;6.18;;
2211;SDS011;48849;48.758;9.158;2023-10-09T02:33:37;21.20;;;5.55;;
2211;SDS011;48849;48.758;9.158;2023-10-09T02:36:05;24.08;;;6.82;;
2211;SDS011;48849;48.758;9.158;2023-10-09T02:38:32;20.75;;;6.60;;
2211;SDS011;48849;48.758;9.158;2023-10-09T02:41:01;22.48;;;5.75;;
2211;SDS011;48849;48.758;9.158;2023-10-09T02:43:46;26.88;;;7.10;;
2211;SDS011;48849;48.758;9.158;2023-10-09T02:46:16;23.55;;;5.10;;
2211;SDS011;48849;48.758;9.158;2023-10-09T02:48:45;18.50;;;5.60;;
2211;SDS011;48849;48.758;9.158;2023-10-09T02:51:16;15.73;;;5.00;;
2211;SDS011;48849;48.758;9.158;2023-10-09T02:53:57;24.02;;;6.20;;
2211;SDS011;48849;48.758;9.158;2023-10-09T02:56:31;19.15;;;5.22;;
2211;SDS011;48849;48.758;9.158;2023-10-09T02:59:09;20.30;;;5.82;;
2211;SDS011;48849;48.758;9.158;2023-10-09T03:01:37;18.27;;;5.25;;
2211;SDS011;48849;48.758;9.158;2023-10-09T03:04:04;16.15;;;6.68;;
2211;SDS011;48849;48.758;9.158;2023-10-09T03:06:32;20.25;;;5.70;;
2211;SDS011;48849;48.758;9.158;2023-10-09T03:09:00;15.50;;;5.25;;
2211;SDS011;48849;48.758;9.158;2023-10-09T03:11:41;15.13;;;5.30;;
2211;SDS011;48849;48.758;9.158;2023-10-09T03:14:10;15.82;;;5.78;;
2211;SDS011;48849;48.758;9.158;2023-10-09T03:16:40;21.05;;;5.47;;
2211;SDS011;48849;48.758;9.158;2023-10-09T03:19:08;14.93;;;4.70;;
2211;SDS011;48849;48.758;9.158;2023-10-09T03:21:36;21.23;;;5.85;;
2211;SDS011;48849;48.758;9.158;2023-10-09T03:24:03;22.48;;;5.68;;
2211;SDS011;48849;48.758;9.158;2023-10-09T03:26:32;17.50;;;5.50;;
2211;SDS011;48849;48.758;9.158;2023-10-09T03:28:58;15.55;;;5.95;;
2211;SDS011;48849;48.758;9.158;2023-10-09T03:31:28;13.23;;;5.35;;
2211;SDS011;48849;48.758;9.158;2023-10-09T03:33:56;17.73;;;5.72;;
2211;SDS011;48849;48.758;9.158;2023-10-09T03:36:23;16.80;;;6.05;;
2211;SDS011;48849;48.758;9.158;2023-10-09T03:38:51;20.10;;;6.07;;
2211;SDS011;48849;48.758;9.158;2023-10-09T03:41:19;19.02;;;5.25;;
2211;SDS011;48849;48.758;9.158;2023-10-09T03:43:46;20.55;;;6.07;;
2211;SDS011;48849;48.758;9.158;2023-10-09T03:46:13;17.38;;;5.50;;
2211;SDS011;48849;48.758;9.158;2023-10-09T03:48:47;15.32;;;6.13;;
2211;SDS011;48849;48.758;9.158;2023-10-09T03:51:14;23.50;;;5.57;;
2211;SDS011;48849;48.758;9.158;2023-10-09T03:53:46;19.73;;;5.32;;
2211;SDS011;48849;48.758;9.158;2023-10-09T03:56:13;12.95;;;4.95;;
2211;SDS011;48849;48.758;9.158;2023-10-09T03:58:42;18.83;;;5.50;;
2211;SDS011;48849;48.758;9.158;2023-10-09T04:01:10;15.68;;;5.00;;
2211;SDS011;48849;48.758;9.158;2023-10-09T04:03:42;14.65;;;5.25;;
2211;SDS011;48849;48.758;9.158;2023-10-09T04:06:11;16.80;;;5.40;;
2211;SDS011;48849;48.758;9.158;2023-10-09T04:08:38;22.30;;;5.88;;
2211;SDS011;48849;48.758;9.158;2023-10-09T04:11:12;13.75;;;5.43;;
2211;SDS011;48849;48.758;9.158;2023-10-09T04:13:42;19.38;;;5.60;;
2211;SDS011;48849;48.758;9.158;2023-10-09T04:16:11;22.80;;;6.18;;
2211;SDS011;48849;48.758;9.158;2023-10-09T04:18:59;22.05;;;5.50;;
2211;SDS011;48849;48.758;9.158;2023-10-09T04:21:32;20.30;;;5.85;;
2211;SDS011;48849;48.758;9.158;2023-10-09T04:24:01;25.58;;;5.95;;
2211;SDS011;48849;48.758;9.158;2023-10-09T04:26:46;20.98;;;5.45;;
2211;SDS011;48849;48.758;9.158;2023-10-09T04:29:13;20.13;;;5.65;;
2211;SDS011;48849;48.758;9.158;2023-10-09T04:31:43;20.33;;;5.53;;
2211;SDS011;48849;48.758;9.158;2023-10-09T04:34:16;17.73;;;5.70;;
2211;SDS011;48849;48.758;9.158;2023-10-09T04:36:56;13.57;;;4.93;;
2211;SDS011;48849;48.758;9.158;2023-10-09T04:39:25;19.27;;;5.07;;
2211;SDS011;48849;48.758;9.158;2023-10-09T04:42:02;17.15;;;5.35;;
2211;SDS011;48849;48.758;9.158;2023-10-09T04:44:47;18.70;;;6.00;;
2211;SDS011;48849;48.758;9.158;2023-10-09T04:47:44;18.20;;;6.28;;
2211;SDS011;48849;48.758;9.158;2023-10-09T04:50:23;20.20;;;5.80;;
2211;SDS011;48849;48.758;9.158;2023-10-09T04:53:09;13.85;;;4.90;;
2211;SDS011;48849;48.758;9.158;2023-10-09T04:55:48;15.88;;;5.80;;
2211;SDS011;48849;48.758;9.158;2023-10-09T04:58:22;14.38;;;4.97;;
2211;SDS011;48849;48.758;9.158;2023-10-09T05:00:51;21.00;;;5.50;;
2211;SDS011;48849;48.758;9.158;2023-10-09T05:03:38;17.23;;;5.97;;
2211;SDS011;48849;48.758;9.158;2023-10-09T05:06:09;14.85;;;5.47;;
2211;SDS011;48849;48.758;9.158;2023-10-09T05:09:04;14.32;;;4.97;;
2211;SDS011;48849;48.758;9.158;2023-10-09T05:11:34;23.13;;;6.35;;
2211;SDS011;48849;48.758;9.158;2023-10-09T05:14:18;15.75;;;6.00;;
2211;SDS011;48849;48.758;9.158;2023-10-09T05:16:52;12.50;;;4.63;;
2211;SDS011;48849;48.758;9.158;2023-10-09T05:19:26;17.50;;;5.00;;
2211;SDS011;48849;48.758;9.158;2023-10-09T05:21:58;20.80;;;5.65;;
2211;SDS011;48849;48.758;9.158;2023-10-09T05:24:34;20.85;;;6.45;;
2211;SDS011;48849;48.758;9.158;2023-10-09T05:27:10;12.18;;;4.97;;
2211;SDS011;48849;48.758;9.158;2023-10-09T05:29:49;15.77;;;5.22;;
2211;SDS011;48849;48.758;9.158;2023-10-09T05:32:37;14.05;;;5.40;;
2211;SDS011;48849;48.758;9.158;2023-10-09T05:35:13;18.38;;;5.57;;
2211;SDS011;48849;48.758;9.158;2023-10-09T05:37:40;22.00;;;6.57;;
2211;SDS011;48849;48.758;9.158;2023-10-09T05:40:12;16.70;;;5.75;;
2211;SDS011;48849;48.758;9.158;2023-10-09T05:42:48;14.45;;;5.90;;
2211;SDS011;48849;48.758;9.158;2023-10-09T05:45:24;13.75;;;4.93;;
2211;SDS011;48849;48.758;9.158;2023-10-09T05:48:09;16.83;;;5.38;;
2211;SDS011;48849;48.758;9.158;2023-10-09T05:50:50;16.33;;;6.18;;
2211;SDS011;48849;48.758;9.158;2023-10-09T05:53:34;14.75;;;4.97;;
2211;SDS011;48849;48.758;9.158;2023-10-09T05:56:36;16.45;;;5.85;;
2211;SDS011;48849;48.758;9.158;2023-10-09T05:59:20;15.38;;;5.53;;
2211;SDS011;48849;48.758;9.158;2023-10-09T06:02:00;21.38;;;6.15;;
2211;SDS011;48849;48.758;9.158;2023-10-09T06:05:42;17.70;;;5.20;;
2211;SDS011;48849;48.758;9.158;2023-10-09T06:08:44;11.27;;;4.63;;
2211;SDS011;48849;48.758;9.158;2023-10-09T06:19:08;20.48;;;6.32;;
2211;SDS011;48849;48.758;9.158;2023-10-09T06:21:56;23.35;;;5.10;;
2211;SDS011;48849;48.758;9.158;2023-10-09T06:27:57;15.10;;;5.35;;
2211;SDS011;48849;48.758;9.158;2023-10-09T06:33:54;15.48;;;5.60;;
2211;SDS011;48849;48.758;9.158;2023-10-09T06:36:47;27.25;;;5.60;;
2211;SDS011;48849;48.758;9.158;2023-10-09T06:39:48;15.77;;;5.35;;
2211;SDS011;48849;48.758;9.158;2023-10-09T06:42:33;16.52;;;4.53;;
2211;SDS011;48849;48.758;9.158;2023-10-09T06:45:16;17.40;;;4.78;;
2211;SDS011;48849;48.758;9.158;2023-10-09T06:47:57;11.07;;;5.20;;
2211;SDS011;48849;48.758;9.158;2023-10-09T06:50:36;14.48;;;4.82;;
2211;SDS011;48849;48.758;9.158;2023-10-09T06:53:18;20.50;;;6.03;;
2211;SDS011;48849;48.758;9.158;2023-10-09T06:55:53;12.38;;;4.82;;
2211;SDS011;48849;48.758;9.158;2023-10-09T06:58:30;21.20;;;5.20;;
2211;SDS011;48849;48.758;9.158;2023-10-09T07:01:35;20.95;;;5.35;;
2211;SDS011;48849;48.758;9.158;2023-10-09T07:04:12;19.60;;;5.95;;
2211;SDS011;48849;48.758;9.158;2023-10-09T07:07:09;16.73;;;5.25;;
2211;SDS011;48849;48.758;9.158;2023-10-09T07:12:53;19.70;;;5.55;;
2211;SDS011;48849;48.758;9.158;2023-10-09T07:15:23;13.90;;;5.60;;
2211;SDS011;48849;48.758;9.158;2023-10-09T07:18:19;12.48;;;4.70;;
2211;SDS011;48849;48.758;9.158;2023-10-09T07:20:52;15.13;;;5.82;;
2211;SDS011;48849;48.758;9.158;2023-10-09T07:23:56;18.25;;;5.60;;
2211;SDS011;48849;48.758;9.158;2023-10-09T07:29:34;14.43;;;5.45;;
2211;SDS011;48849;48.758;9.158;2023-10-09T07:32:51;9.40;;;4.60;;
2211;SDS011;48849;48.758;9.158;2023-10-09T07:35:51;14.95;;;5.45;;
2211;SDS011;48849;48.758;9.158;2023-10-09T07:39:01;16.30;;;5.55;;
2211;SDS011;48849;48.758;9.158;2023-10-09T07:41:50;16.20;;;5.38;;
2211;SDS011;48849;48.758;9.158;2023-10-09T07:47:56;18.85;;;5.28;;
2211;SDS011;48849;48.758;9.158;2023-10-09T07:50:34;11.75;;;5.32;;
2211;SDS011;48849;48.758;9.158;2023-10-09T07:53:06;16.85;;;5.80;;
2211;SDS011;48849;48.758;9.158;2023-10-09T07:55:54;17.67;;;6.07;;
2211;SDS011;48849;48.758;9.158;2023-10-09T07:58:33;19.75;;;6.50;;
2211;SDS011;48849;48.758;9.158;2023-10-09T08:01:11;23.13;;;5.95;;
2211;SDS011;48849;48.758;9.158;2023-10-09T08:04:04;14.68;;;5.70;;
2211;SDS011;48849;48.758;9.158;2023-10-09T08:06:38;14.68;;;5.35;;
2211;SDS011;48849;48.758;9.158;2023-10-09T08:09:25;15.95;;;5.55;;
2211;SDS011;48849;48.758;9.158;2023-10-09T08:12:11;11.87;;;5.17;;
2211;SDS011;48849;48.758;9.158;2023-10-09T08:15:15;15.13;;;5.32;;
2211;SDS011;48849;48.758;9.158;2023-10-09T08:17:52;16.02;;;4.70;;
2211;SDS011;48849;48.758;9.158;2023-10-09T08:20:42;13.57;;;5.55;;
2211;SDS011;48849;48.758;9.158;2023-10-09T08:23:26;21.42;;;6.05;;
2211;SDS011;48849;48.758;9.158;2023-10-09T08:25:58;14.75;;;6.25;;
2211;SDS011;48849;48.758;9.158;2023-10-09T08:28:37;20.17;;;7.35;;
2211;SDS011;48849;48.758;9.158;2023-10-09T08:31:09;13.35;;;7.57;;
2211;SDS011;48849;48.758;9.158;2023-10-09T08:33:59;18.02;;;6.95;;
2211;SDS011;48849;48.758;9.158;2023-10-09T08:36:29;14.43;;;6.18;;
2211;SDS011;48849;48.758;9.158;2023-10-09T08:39:04;11.68;;;5.70;;
2211;SDS011;48849;48.758;9.158;2023-10-09T08:41:44;11.23;;;6.13;;
2211;SDS011;48849;48.758;9.158;2023-10-09T08:47:17;12.65;;;6.82;;
2211;SDS011;48849;48.758;9.158;2023-10-09T08:49:56;11.27;;;5.35;;
2211;SDS011;48849;48.758;9.158;2023-10-09T08:52:37;16.50;;;5.60;;
2211;SDS011;48849;48.758;9.158;2023-10-09T08:55:19;16.45;;;5.78;;
2211;SDS011;48849;48.758;9.158;2023-10-09T08:57:59;14.30;;;5.28;;
2211;SDS011;48849;48.758;9.158;2023-10-09T09:00:33;12.95;;;5.25;;
2211;SDS011;48849;48.758;9.158;2023-10-09T09:03:03;12.43;;;5.22;;
2211;SDS011;48849;48.758;9.158;2023-10-09T09:05:40;17.38;;;5.70;;
2211;SDS011;48849;48.758;9.158;2023-10-09T09:08:37;18.60;;;5.45;;
2211;SDS011;48849;48.758;9.158;2023-10-09T09:11:40;19.08;;;4.82;;
2211;SDS011;48849;48.758;9.158;2023-10-09T09:14:34;12.48;;;5.55;;
2211;SDS011;48849;48.758;9.158;2023-10-09T09:17:22;13.77;;;5.57;;
2211;SDS011;48849;48.758;9.158;2023-10-09T09:19:58;8.10;;;4.63;;
2211;SDS011;48849;48.758;9.158;2023-10-09T09:22:35;16.13;;;6.30;;
2211;SDS011;48849;48.758;9.158;2023-10-09T09:28:53;15.43;;;6.75;;
2211;SDS011;48849;48.758;9.158;2023-10-09T09:31:31;17.17;;;7.95;;
2211;SDS011;48849;48.758;9.158;2023-10-09T09:34:43;17.03;;;8.50;;
2211;SDS011;48849;48.758;9.158;2023-10-09T09:37:52;12.80;;;7.22;;
2211;SDS011;48849;48.758;9.158;2023-10-09T09:40:43;26.42;;;9.15;;
2211;SDS011;48849;48.758;9.158;2023-10-09T09:53:08;14.20;;;8.57;;
2211;SDS011;48849;48.758;9.158;2023-10-09T09:55:54;16.93;;;8.70;;
2211;SDS011;48849;48.758;9.158;2023-10-09T09:58:57;13.87;;;7.30;;
2211;SDS011;48849;48.758;9.158;2023-10-09T10:02:35;19.50;;;7.97;;
2211;SDS011;48849;48.758;9.158;2023-10-09T10:05:37;18.40;;;8.07;;
2211;SDS011;48849;48.758;9.158;2023-10-09T10:08:15;17.48;;;8.20;;
2211;SDS011;48849;48.758;9.158;2023-10-09T10:11:20;16.90;;;7.00;;
2211;SDS011;48849;48.758;9.158;2023-10-09T10:25:17;15.70;;;6.20;;
2211;SDS011;48849;48.758;9.158;2023-10-09T10:28:34;13.20;;;6.25;;
2211;SDS011;48849;48.758;9.158;2023-10-09T10:38:24;12.77;;;6.55;;
2211;SDS011;48849;48.758;9.158;2023-10-09T10:52:49;18.07;;;5.90;;
2211;SDS011;48849;48.758;9.158;2023-10-09T10:59:08;20.83;;;6.67;;
2211;SDS011;48849;48.758;9.158;2023-10-09T11:06:00;12.67;;;5.93;;
2211;SDS011;48849;48.758;9.158;2023-10-09T11:32:46;16.63;;;6.07;;
2211;SDS011;48849;48.758;9.158;2023-10-09T11:38:58;15.87;;;5.33;;
2211;SDS011;48849;48.758;9.158;2023-10-09T11:42:28;23.87;;;5.30;;
2211;SDS011;48849;48.758;9.158;2023-10-09T11:52:12;18.07;;;5.70;;
2211;SDS011;48849;48.758;9.158;2023-10-09T11:55:39;11.87;;;5.63;;
2211;SDS011;48849;48.758;9.158;2023-10-09T12:02:05;10.60;;;5.27;;
2211;SDS011;48849;48.758;9.158;2023-10-09T12:05:39;14.45;;;7.20;;
2211;SDS011;48849;48.758;9.158;2023-10-09T12:08:58;15.50;;;7.00;;
2211;SDS011;48849;48.758;9.158;2023-10-09T12:12:24;18.03;;;8.63;;
2211;SDS011;48849;48.758;9.158;2023-10-09T12:15:42;15.07;;;7.90;;
2211;SDS011;48849;48.758;9.158;2023-10-09T12:18:58;14.70;;;8.30;;
2211;SDS011;48849;48.758;9.158;2023-10-09T12:22:02;17.63;;;8.73;;
2211;SDS011;48849;48.758;9.158;2023-10-09T12:25:35;20.47;;;10.10;;
2211;SDS011;48849;48.758;9.158;2023-10-09T12:35:25;12.93;;;6.80;;
2211;SDS011;48849;48.758;9.158;2023-10-09T12:58:30;10.33;;;6.70;;
2211;SDS011;48849;48.758;9.158;2023-10-09T13:24:48;17.07;;;8.37;;
2211;SDS011;48849;48.758;9.158;2023-10-09T13:27:39;14.00;;;7.47;;
2211;SDS011;48849;48.758;9.158;2023-10-09T13:30:49;11.50;;;7.90;;
2211;SDS011;48849;48.758;9.158;2023-10-09T13:33:28;13.67;;;7.90;;
2211;SDS011;48849;48.758;9.158;2023-10-09T13:36:20;12.83;;;7.37;;
2211;SDS011;48849;48.758;9.158;2023-10-09T13:39:02;15.50;;;7.13;;
2211;SDS011;48849;48.758;9.158;2023-10-09T13:41:51;13.50;;;8.20;;
2211;SDS011;48849;48.758;9.158;2023-10-09T13:44:31;12.13;;;6.80;;
2211;SDS011;48849;48.758;9.158;2023-10-09T13:47:39;12.07;;;8.80;;
2211;SDS011;48849;48.758;9.158;2023-10-09T13:50:31;13.10;;;9.30;;
2211;SDS011;48849;48.758;9.158;2023-10-09T13:53:13;13.25;;;8.68;;
2211;SDS011;48849;48.758;9.158;2023-10-09T13:55:59;13.63;;;8.30;;
2211;SDS011;48849;48.758;9.158;2023-10-09T14:04:56;17.93;;;11.47;;
2211;SDS011;48849;48.758;9.158;2023-10-09T14:07:26;15.53;;;9.90;;
2211;SDS011;48849;48.758;9.158;2023-10-09T14:10:29;15.57;;;8.63;;
2211;SDS011;48849;48.758;9.158;2023-10-09T14:13:15;14.70;;;8.57;;
2211;SDS011;48849;48.758;9.158;2023-10-09T14:18:59;12.80;;;7.37;;
2211;SDS011;48849;48.758;9.158;2023-10-09T14:21:38;13.87;;;8.50;;
2211;SDS011;48849;48.758;9.158;2023-10-09T14:24:28;9.90;;;6.80;;
2211;SDS011;48849;48.758;9.158;2023-10-09T14:27:00;13.07;;;8.00;;
2211;SDS011;48849;48.758;9.158;2023-10-09T14:29:31;13.60;;;9.77;;
2211;SDS011;48849;48.758;9.158;2023-10-09T14:32:06;17.10;;;12.43;;
2211;SDS011;48849;48.758;9.158;2023-10-09T14:34:47;16.23;;;11.60;;
2211;SDS011;48849;48.758;9.158;2023-10-09T14:37:28;13.50;;;9.47;;
2211;SDS011;48849;48.758;9.158;2023-10-09T14:40:15;13.90;;;10.07;;
2211;SDS011;48849;48.758;9.158;2023-10-09T14:43:02;12.57;;;8.37;;
2211;SDS011;48849;48.758;9.158;2023-10-09T14:45:44;13.00;;;8.73;;
2211;SDS011;48849;48.758;9.158;2023-10-09T14:48:48;11.70;;;7.80;;
2211;SDS011;48849;48.758;9.158;2023-10-09T14:51:52;14.30;;;8.27;;
2211;SDS011;48849;48.758;9.158;2023-10-09T14:54:35;11.10;;;8.17;;
2211;SDS011;48849;48.758;9.158;2023-10-09T15:00:30;12.90;;;8.17;;
2211;SDS011;48849;48.758;9.158;2023-10-09T15:03:18;12.83;;;7.70;;
2211;SDS011;48849;48.758;9.158;2023-10-09T15:05:49;12.20;;;8.67;;
2211;SDS011;48849;48.758;9.158;2023-10-09T15:08:25;13.73;;;8.47;;
2211;SDS011;48849;48.758;9.158;2023-10-09T15:11:08;12.17;;;8.13;;
2211;SDS011;48849;48.758;9.158;2023-10-09T15:14:07;12.37;;;8.80;;
2211;SDS011;48849;48.758;9.158;2023-10-09T15:17:09;12.53;;;7.83;;
2211;SDS011;48849;48.758;9.158;2023-10-09T15:19:49;12.37;;;8.87;;
2211;SDS011;48849;48.758;9.158;2023-10-09T15:28:26;15.93;;;9.60;;
2211;SDS011;48849;48.758;9.158;2023-10-09T15:31:26;13.77;;;8.77;;
2211;SDS011;48849;48.758;9.158;2023-10-09T15:34:04;12.00;;;8.70;;
2211;SDS011;48849;48.758;9.158;2023-10-09T15:37:16;15.87;;;9.00;;
2211;SDS011;48849;48.758;9.158;2023-10-09T15:43:04;15.17;;;11.87;;
2211;SDS011;48849;48.758;9.158;2023-10-09T15:46:03;18.07;;;14.23;;
2211;SDS011;48849;48.758;9.158;2023-10-09T15:48:53;21.63;;;17.43;;
2211;SDS011;48849;48.758;9.158;2023-10-09T15:58:43;29.10;;;22.10;;
2211;SDS011;48849;48.758;9.158;2023-10-09T16:09:12;30.77;;;24.67;;
2211;SDS011;48849;48.758;9.158;2023-10-09T16:25:22;23.40;;;19.20;;
2211;SDS011;48849;48.758;9.158;2023-10-09T16:30:24;21.80;;;17.13;;
2211;SDS011;48849;48.758;9.158;2023-10-09T16:34:40;19.70;;;16.63;;
2211;SDS011;48849;48.758;9.158;2023-10-09T16:37:37;18.93;;;14.90;;
2211;SDS011;48849;48.758;9.158;2023-10-09T16:40:23;19.83;;;15.07;;
2211;SDS011;48849;48.758;9.158;2023-10-09T16:43:23;19.20;;;13.47;;
2211;SDS011;48849;48.758;9.158;2023-10-09T16:46:13;16.50;;;12.67;;
2211;SDS011;48849;48.758;9.158;2023-10-09T16:55:50;17.03;;;11.10;;
2211;SDS011;48849;48.758;9.158;2023-10-09T16:58:32;15.00;;;11.60;;
2211;SDS011;48849;48.758;9.158;2023-10-09T17:01:54;14.10;;;11.00;;
2211;SDS011;48849;48.758;9.158;2023-10-09T17:07:58;18.10;;;11.20;;
2211;SDS011;48849;48.758;9.158;2023-10-09T17:11:05;17.17;;;12.10;;
2211;SDS011;48849;48.758;9.158;2023-10-09T17:14:10;17.50;;;11.20;;
2211;SDS011;48849;48.758;9.158;2023-10-09T17:17:12;16.50;;;11.20;;
2211;SDS011;48849;48.758;9.158;2023-10-09T17:19:55;16.50;;;11.30;;
2211;SDS011;48849;48.758;9.158;2023-10-09T17:26:01;19.20;;;11.80;;
2211;SDS011;48849;48.758;9.158;2023-10-09T17:29:08;17.13;;;10.70;;
2211;SDS011;48849;48.758;9.158;2023-10-09T17:32:00;16.20;;;10.03;;
2211;SDS011;48849;48.758;9.158;2023-10-09T17:34:51;15.40;;;9.20;;
2211;SDS011;48849;48.758;9.158;2023-10-09T17:37:29;15.10;;;8.43;;
2211;SDS011;48849;48.758;9.158;2023-10-09T17:43:27;15.82;;;8.00;;
2211;SDS011;48849;48.758;9.158;2023-10-09T17:46:19;18.13;;;8.10;;
2211;SDS011;48849;48.758;9.158;2023-10-09T17:49:27;19.00;;;8.37;;
2211;SDS011;48849;48.758;9.158;2023-10-09T17:52:31;18.27;;;8.53;;
2211;SDS011;48849;48.758;9.158;2023-10-09T17:55:43;19.30;;;9.03;;
2211;SDS011;48849;48.758;9.158;2023-10-09T17:58:38;21.77;;;9.53;;
2211;SDS011;48849;48.758;9.158;2023-10-09T18:01:41;21.73;;;9.13;;
2211;SDS011;48849;48.758;9.158;2023-10-09T18:04:29;21.70;;;9.20;;
2211;SDS011;48849;48.758;9.158;2023-10-09T18:07:22;18.17;;;6.63;;
2211;SDS011;48849;48.758;9.158;2023-10-09T18:10:36;17.95;;;7.03;;
2211;SDS011;48849;48.758;9.158;2023-10-09T18:13:26;22.45;;;6.95;;
2211;SDS011;48849;48.758;9.158;2023-10-09T18:16:33;16.57;;;6.53;;
2211;SDS011;48849;48.758;9.158;2023-10-09T18:22:54;14.53;;;5.90;;
2211;SDS011;48849;48.758;9.158;2023-10-09T18:25:52;22.27;;;7.80;;
2211;SDS011;48849;48.758;9.158;2023-10-09T18:28:44;21.60;;;7.83;;
2211;SDS011;48849;48.758;9.158;2023-10-09T18:31:28;19.77;;;7.25;;
2211;SDS011;48849;48.758;9.158;2023-10-09T18:34:43;20.90;;;7.00;;
2211;SDS011;48849;48.758;9.158;2023-10-09T18:37:37;13.50;;;6.80;;
2211;SDS011;48849;48.758;9.158;2023-10-09T18:40:15;23.00;;;7.30;;
2211;SDS011;48849;48.758;9.158;2023-10-09T18:46:08;19.42;;;7.90;;
2211;SDS011;48849;48.758;9.158;2023-10-09T18:48:59;38.47;;;21.73;;
2211;SDS011;48849;48.758;9.158;2023-10-09T18:51:57;29.73;;;17.77;;
2211;SDS011;48849;48.758;9.158;2023-10-09T18:54:47;29.70;;;16.70;;
2211;SDS011;48849;48.758;9.158;2023-10-09T18:57:54;23.85;;;14.35;;
2211;SDS011;48849;48.758;9.158;2023-10-09T19:00:56;18.83;;;9.73;;
2211;SDS011;48849;48.758;9.158;2023-10-09T19:03:37;22.48;;;9.65;;
2211;SDS011;48849;48.758;9.158;2023-10-09T19:06:07;17.67;;;8.10;;
2211;SDS011;48849;48.758;9.158;2023-10-09T19:08:40;13.63;;;6.83;;
2211;SDS011;48849;48.758;9.158;2023-10-09T19:11:13;15.27;;;6.77;;
2211;SDS011;48849;48.758;9.158;2023-10-09T19:13:45;21.27;;;7.22;;
2211;SDS011;48849;48.758;9.158;2023-10-09T19:16:14;19.63;;;6.90;;
2211;SDS011;48849;48.758;9.158;2023-10-09T19:18:46;14.63;;;6.40;;
2211;SDS011;48849;48.758;9.158;2023-10-09T19:21:18;15.90;;;6.70;;
2211;SDS011;48849;48.758;9.158;2023-10-09T19:23:48;19.80;;;7.20;;
2211;SDS011;48849;48.758;9.158;2023-10-09T19:26:15;19.63;;;7.00;;
2211;SDS011;48849;48.758;9.158;2023-10-09T19:28:43;17.80;;;7.77;;
2211;SDS011;48849;48.758;9.158;2023-10-09T19:31:14;20.90;;;8.13;;
2211;SDS011;48849;48.758;9.158;2023-10-09T19:33:41;17.37;;;7.60;;
2211;SDS011;48849;48.758;9.158;2023-10-09T19:36:12;22.70;;;9.57;;
2211;SDS011;48849;48.758;9.158;2023-10-09T19:38:40;22.07;;;9.17;;
2211;SDS011;48849;48.758;9.158;2023-10-09T19:41:08;24.57;;;9.77;;
2211;SDS011;48849;48.758;9.158;2023-10-09T19:43:36;16.53;;;8.00;;
2211;SDS011;48849;48.758;9.158;2023-10-09T19:46:03;19.63;;;8.65;;
2211;SDS011;48849;48.758;9.158;2023-10-09T19:48:45;25.07;;;11.00;;
2211;SDS011;48849;48.758;9.158;2023-10-09T19:51:24;27.60;;;11.45;;
2211;SDS011;48849;48.758;9.158;2023-10-09T19:53:50;26.03;;;10.50;;
2211;SDS011;48849;48.758;9.158;2023-10-09T19:56:18;17.97;;;9.23;;
2211;SDS011;48849;48.758;9.158;2023-10-09T19:58:47;16.48;;;8.20;;
2211;SDS011;48849;48.758;9.158;2023-10-09T20:01:14;17.73;;;8.00;;
2211;SDS011;48849;48.758;9.158;2023-10-09T20:03:45;19.65;;;10.68;;
2211;SDS011;48849;48.758;9.158;2023-10-09T20:06:11;23.33;;;9.10;;
2211;SDS011;48849;48.758;9.158;2023-10-09T20:08:40;13.80;;;7.10;;
2211;SDS011;48849;48.758;9.158;2023-10-09T20:11:09;15.47;;;8.73;;
2211;SDS011;48849;48.758;9.158;2023-10-09T20:13:37;19.52;;;9.32;;
2211;SDS011;48849;48.758;9.158;2023-10-09T20:16:05;17.80;;;8.03;;
2211;SDS011;48849;48.758;9.158;2023-10-09T20:18:33;21.37;;;9.20;;
2211;SDS011;48849;48.758;9.158;2023-10-09T20:21:02;18.05;;;8.35;;